Time;durP1;ratioP1;P1;durP2;ratioP2;P2;SDS_P1;SDS_P2;PMS_P1;PMS_P2;Temp;Humidity;BMP_temperature;BMP_pressure;BME280_temperature;BME280_humidity;BME280_pressure;Samples;Min_cycle;Max_cycle;Signal;HPM_P1;HPM_P2
2022/11/09 00:01:25;;;;;;;15.55;3.55;;;;;;;;;;5260302;27;20386;-70
2022/11/09 00:03:58;;;;;;;11.07;2.87;;;;;;;;;;5261551;27;20005;-72
2022/11/09 00:06:23;;;;;;;14.68;2.75;;;;;;;;;;5260955;27;20002;-70
2022/11/09 00:08:48;;;;;;;9.80;3.33;;;;;;;;;;5259856;27;20433;-69
2022/11/09 00:11:14;;;;;;;11.80;3.17;;;;;;;;;;5261243;27;20037;-70
2022/11/09 00:13:40;;;;;;;14.05;3.28;;;;;;;;;;5259570;27;20006;-70
2022/11/09 00:16:06;;;;;;;8.85;2.70;;;;;;;;;;5259752;27;20041;-71
2022/11/09 00:18:33;;;;;;;10.18;2.85;;;;;;;;;;5261887;27;20351;-71
2022/11/09 00:20:58;;;;;;;14.05;3.35;;;;;;;;;;5261785;27;20005;-70
2022/11/09 00:23:23;;;;;;;14.27;2.80;;;;;;;;;;5261059;27;20434;-71
2022/11/09 00:25:48;;;;;;;17.87;3.67;;;;;;;;;;5260549;27;20375;-70
2022/11/09 00:28:13;;;;;;;12.52;2.35;;;;;;;;;;5260308;27;20451;-70
2022/11/09 00:30:39;;;;;;;13.70;2.37;;;;;;;;;;5260250;27;20053;-71
2022/11/09 00:33:04;;;;;;;12.77;3.20;;;;;;;;;;5258995;27;20361;-71
2022/11/09 00:35:29;;;;;;;12.23;2.85;;;;;;;;;;5261698;27;20006;-70
2022/11/09 00:37:55;;;;;;;12.65;3.42;;;;;;;;;;5259728;27;20323;-70
2022/11/09 00:40:20;;;;;;;14.57;2.90;;;;;;;;;;5262337;27;20006;-70
2022/11/09 00:42:45;;;;;;;9.95;2.62;;;;;;;;;;5261310;27;20002;-70
2022/11/09 00:45:10;;;;;;;16.67;3.33;;;;;;;;;;5260061;27;20012;-69
2022/11/09 00:47:35;;;;;;;13.90;3.10;;;;;;;;;;5259328;27;20021;-71
2022/11/09 00:50:00;;;;;;;11.75;2.53;;;;;;;;;;5259565;27;20001;-70
2022/11/09 00:52:26;;;;;;;16.67;2.75;;;;;;;;;;5260790;27;20031;-70
2022/11/09 00:54:51;;;;;;;14.18;3.67;;;;;;;;;;5261246;27;20426;-69
2022/11/09 00:57:16;;;;;;;9.20;3.35;;;;;;;;;;5260067;27;20018;-68
2022/11/09 00:59:41;;;;;;;13.70;3.08;;;;;;;;;;5262919;27;20032;-70
2022/11/09 01:02:07;;;;;;;10.43;3.05;;;;;;;;;;5260418;27;20350;-70
2022/11/09 01:04:32;;;;;;;23.50;5.10;;;;;;;;;;5261170;27;19998;-70
2022/11/09 01:06:57;;;;;;;13.88;2.97;;;;;;;;;;5262064;27;20012;-70
2022/11/09 01:09:22;;;;;;;15.00;3.28;;;;;;;;;;5261937;27;20296;-70
2022/11/09 01:11:47;;;;;;;13.90;2.75;;;;;;;;;;5261740;27;20012;-69
2022/11/09 01:14:12;;;;;;;15.45;3.60;;;;;;;;;;5261173;27;20002;-68
2022/11/09 01:16:38;;;;;;;14.87;4.12;;;;;;;;;;5263340;27;20012;-69
2022/11/09 01:19:03;;;;;;;19.67;3.15;;;;;;;;;;5263036;27;20001;-69
2022/11/09 01:21:28;;;;;;;14.65;3.15;;;;;;;;;;5261361;27;20041;-70
2022/11/09 01:23:54;;;;;;;11.85;3.20;;;;;;;;;;5260909;27;20033;-70
2022/11/09 01:26:20;;;;;;;17.75;3.42;;;;;;;;;;5260500;27;20017;-70
2022/11/09 01:28:45;;;;;;;18.70;3.15;;;;;;;;;;5261429;27;20305;-70
2022/11/09 01:31:12;;;;;;;18.62;3.10;;;;;;;;;;5259647;27;20399;-70
2022/11/09 01:33:37;;;;;;;12.75;2.80;;;;;;;;;;5260979;27;20383;-69
2022/11/09 01:36:12;;;;;;;10.95;3.70;;;;;;;;;;5260995;27;20002;-69
2022/11/09 01:38:38;;;;;;;10.05;2.70;;;;;;;;;;5271107;27;20049;-69
2022/11/09 01:41:04;;;;;;;14.15;3.42;;;;;;;;;;5284475;27;20009;-69
2022/11/09 01:43:29;;;;;;;13.93;2.90;;;;;;;;;;5284192;27;20346;-69
2022/11/09 01:46:04;;;;;;;17.23;3.87;;;;;;;;;;5284349;27;20453;-69
2022/11/09 01:48:33;;;;;;;13.00;2.97;;;;;;;;;;5282406;27;20009;-68
2022/11/09 01:51:01;;;;;;;18.55;3.70;;;;;;;;;;5284931;27;20082;-69
2022/11/09 01:53:29;;;;;;;15.63;3.83;;;;;;;;;;5283256;27;20339;-69
2022/11/09 01:55:56;;;;;;;11.65;3.03;;;;;;;;;;5285084;27;20005;-69
2022/11/09 01:58:24;;;;;;;13.10;3.60;;;;;;;;;;5284704;27;20002;-69
2022/11/09 02:00:50;;;;;;;15.10;2.78;;;;;;;;;;5284610;27;20021;-68
2022/11/09 02:03:15;;;;;;;;;;;;;;;;;;5285588;27;20327;-68
2022/11/09 02:05:41;;;;;;;16.95;3.45;;;;;;;;;;5284688;27;19937;-68
2022/11/09 02:08:07;;;;;;;15.75;3.62;;;;;;;;;;5284307;27;20137;-69
2022/11/09 02:10:36;;;;;;;11.07;3.12;;;;;;;;;;5282599;27;20397;-68
2022/11/09 02:13:02;;;;;;;11.02;2.65;;;;;;;;;;5264919;27;20001;-68
2022/11/09 02:15:27;;;;;;;;;;;;;;;;;;5262979;27;20065;-68
2022/11/09 02:17:53;;;;;;;13.27;2.62;;;;;;;;;;5282347;27;19928;-69
2022/11/09 02:20:18;;;;;;;12.07;2.20;;;;;;;;;;5282224;27;20028;-68
2022/11/09 02:22:44;;;;;;;14.48;2.60;;;;;;;;;;5284248;27;20335;-69
2022/11/09 02:25:11;;;;;;;8.85;2.53;;;;;;;;;;5265023;27;20017;-68
2022/11/09 02:27:37;;;;;;;18.77;4.12;;;;;;;;;;5281897;27;20029;-68
2022/11/09 02:30:02;;;;;;;;;;;;;;;;;;5283083;27;20008;-68
2022/11/09 02:32:28;;;;;;;14.68;3.58;;;;;;;;;;5283934;27;19940;-68
2022/11/09 02:34:53;;;;;;;14.23;3.65;;;;;;;;;;5284466;27;20008;-68
2022/11/09 02:37:24;;;;;;;15.82;3.40;;;;;;;;;;5284558;27;20006;-68
2022/11/09 02:39:49;;;;;;;16.27;4.20;;;;;;;;;;5262531;27;20118;-68
2022/11/09 02:42:14;;;;;;;;;;;;;;;;;;5262861;27;20346;-68
2022/11/09 02:44:42;;;;;;;14.77;2.70;;;;;;;;;;5262398;27;19940;-68
2022/11/09 02:47:07;;;;;;;9.38;2.85;;;;;;;;;;5262110;27;20021;-68
2022/11/09 02:49:32;;;;;;;;;;;;;;;;;;5262537;27;20028;-69
2022/11/09 02:51:57;;;;;;;13.88;3.42;;;;;;;;;;5261174;27;19928;-69
2022/11/09 02:54:22;;;;;;;16.65;3.78;;;;;;;;;;5259531;27;20120;-68
2022/11/09 02:56:48;;;;;;;11.95;2.62;;;;;;;;;;5258684;27;20009;-69
2022/11/09 02:59:13;;;;;;;12.90;3.28;;;;;;;;;;5261164;27;20356;-69
2022/11/09 03:01:38;;;;;;;11.38;3.05;;;;;;;;;;5261563;27;20009;-69
2022/11/09 03:04:03;;;;;;;12.37;3.15;;;;;;;;;;5261703;27;20405;-67
2022/11/09 03:06:34;;;;;;;10.82;3.28;;;;;;;;;;5259313;27;20001;-69
2022/11/09 03:09:10;;;;;;;9.70;2.85;;;;;;;;;;5261745;27;20028;-69
2022/11/09 03:11:35;;;;;;;12.53;2.80;;;;;;;;;;5261817;27;20016;-69
2022/11/09 03:14:01;;;;;;;10.60;3.03;;;;;;;;;;5261998;27;20010;-68
2022/11/09 03:16:26;;;;;;;14.48;2.67;;;;;;;;;;5261595;27;20013;-69
2022/11/09 03:18:51;;;;;;;14.93;3.17;;;;;;;;;;5262158;27;20001;-68
2022/11/09 03:21:17;;;;;;;10.98;3.10;;;;;;;;;;5259567;27;20321;-68
2022/11/09 03:23:42;;;;;;;19.33;3.70;;;;;;;;;;5262827;27;20002;-68
2022/11/09 03:26:07;;;;;;;12.45;2.83;;;;;;;;;;5262075;27;20029;-68
2022/11/09 03:28:32;;;;;;;8.20;2.55;;;;;;;;;;5259808;27;20024;-68
2022/11/09 03:30:57;;;;;;;11.07;3.55;;;;;;;;;;5262560;27;20030;-70
2022/11/09 03:33:22;;;;;;;17.73;3.78;;;;;;;;;;5258447;27;20300;-70
2022/11/09 03:35:48;;;;;;;11.20;2.92;;;;;;;;;;5258410;27;20121;-68
2022/11/09 03:38:13;;;;;;;16.55;3.85;;;;;;;;;;5261673;27;20027;-69
2022/11/09 03:40:38;;;;;;;12.77;3.75;;;;;;;;;;5262579;27;20060;-68
2022/11/09 03:43:03;;;;;;;;;;;;;;;;;;5262549;27;20002;-69
2022/11/09 03:45:29;;;;;;;11.95;2.90;;;;;;;;;;5262056;27;19936;-68
2022/11/09 03:47:58;;;;;;;14.63;3.58;;;;;;;;;;5262021;27;20026;-68
2022/11/09 03:50:24;;;;;;;11.35;2.35;;;;;;;;;;5261992;27;20013;-69
2022/11/09 03:52:49;;;;;;;;;;;;;;;;;;5259949;27;20002;-69
2022/11/09 03:55:14;;;;;;;11.18;2.40;;;;;;;;;;5262092;27;19972;-69
2022/11/09 03:57:40;;;;;;;11.30;3.22;;;;;;;;;;5260338;27;20010;-69
2022/11/09 04:00:06;;;;;;;12.60;2.92;;;;;;;;;;5262391;27;20001;-70
2022/11/09 04:02:31;;;;;;;14.73;3.00;;;;;;;;;;5261939;27;20017;-69
2022/11/09 04:04:56;;;;;;;;;;;;;;;;;;5262348;27;20001;-69
2022/11/09 04:07:22;;;;;;;14.82;2.83;;;;;;;;;;5259822;27;19939;-69
2022/11/09 04:09:47;;;;;;;7.75;2.33;;;;;;;;;;5262060;27;20029;-69
2022/11/09 04:12:12;;;;;;;12.88;2.95;;;;;;;;;;5261135;27;20012;-69
2022/11/09 04:14:37;;;;;;;12.90;2.75;;;;;;;;;;5261907;27;20029;-70
2022/11/09 04:17:02;;;;;;;11.68;2.78;;;;;;;;;;5262031;27;19999;-70
2022/11/09 04:19:27;;;;;;;;;;;;;;;;;;5262064;27;20411;-69
2022/11/09 04:21:53;;;;;;;8.07;2.40;;;;;;;;;;5262469;27;19929;-68
2022/11/09 04:24:18;;;;;;;14.65;3.10;;;;;;;;;;5261102;27;20006;-69
2022/11/09 04:26:43;;;;;;;12.55;2.55;;;;;;;;;;5261872;27;20006;-69
2022/11/09 04:29:09;;;;;;;9.00;3.08;;;;;;;;;;5261806;27;20305;-68
2022/11/09 04:31:34;;;;;;;12.30;2.40;;;;;;;;;;5261354;27;20467;-69
2022/11/09 04:33:59;;;;;;;13.73;2.78;;;;;;;;;;5261869;27;20012;-68
2022/11/09 04:36:24;;;;;;;10.55;2.42;;;;;;;;;;5263767;27;20308;-69
2022/11/09 04:38:50;;;;;;;14.38;2.83;;;;;;;;;;5260989;27;20033;-69
2022/11/09 04:41:15;;;;;;;;;;;;;;;;;;5263744;27;20012;-68
2022/11/09 04:43:40;;;;;;;12.85;2.42;;;;;;;;;;5261295;27;19929;-68
2022/11/09 04:46:05;;;;;;;13.80;2.53;;;;;;;;;;5261250;27;20020;-68
2022/11/09 04:48:31;;;;;;;12.68;2.83;;;;;;;;;;5261869;27;20009;-68
2022/11/09 04:51:01;;;;;;;13.80;2.65;;;;;;;;;;5260820;27;20002;-68
2022/11/09 04:53:26;;;;;;;15.93;3.35;;;;;;;;;;5263202;27;20346;-68
2022/11/09 04:55:51;;;;;;;;;;;;;;;;;;5261200;27;20002;-68
2022/11/09 04:58:16;;;;;;;13.50;3.15;;;;;;;;;;5260650;27;19928;-68
2022/11/09 05:00:41;;;;;;;13.38;3.33;;;;;;;;;;5261204;27;20057;-68
2022/11/09 05:03:07;;;;;;;11.52;3.12;;;;;;;;;;5260645;27;20012;-69
2022/11/09 05:05:33;;;;;;;11.48;2.08;;;;;;;;;;5263042;27;20010;-69
2022/11/09 05:07:58;;;;;;;10.73;2.70;;;;;;;;;;5263237;27;20038;-70
2022/11/09 05:10:23;;;;;;;;;;;;;;;;;;5262037;27;20016;-72
2022/11/09 05:12:48;;;;;;;18.33;3.97;;;;;;;;;;5262699;27;20002;-70
2022/11/09 05:15:14;;;;;;;12.77;3.00;;;;;;;;;;5262839;27;20002;-72
2022/11/09 05:17:39;;;;;;;11.32;2.72;;;;;;;;;;5262026;27;20024;-72
2022/11/09 05:20:04;;;;;;;;;;;;;;;;;;5260177;27;20008;-71
2022/11/09 05:25:13;;;;;;;15.70;4.37;;;;;;;;;;5262474;27;20035;-71
2022/11/09 05:27:38;;;;;;;;;;;;;;;;;;5263850;27;20010;-71
2022/11/09 05:30:03;;;;;;;12.82;2.62;;;;;;;;;;5243681;27;19928;-71
2022/11/09 05:32:28;;;;;;;13.32;3.62;;;;;;;;;;5262713;27;20016;-71
2022/11/09 05:34:53;;;;;;;;;;;;;;;;;;5261783;27;20409;-70
2022/11/09 05:37:21;;;;;;;13.65;3.40;;;;;;;;;;5241264;27;19986;-70
2022/11/09 05:39:46;;;;;;;14.15;3.45;;;;;;;;;;5260005;27;20076;-70
2022/11/09 05:42:11;;;;;;;;;;;;;;;;;;5260701;27;20002;-71
2022/11/09 05:44:36;;;;;;;13.00;2.97;;;;;;;;;;5260047;27;19929;-71
2022/11/09 05:47:01;;;;;;;15.80;3.60;;;;;;;;;;5263051;27;20002;-72
2022/11/09 05:49:26;;;;;;;;;;;;;;;;;;5261979;27;20006;-71
2022/11/09 05:51:51;;;;;;;15.93;3.22;;;;;;;;;;5260151;27;20221;-72
2022/11/09 05:54:17;;;;;;;18.67;3.60;;;;;;;;;;5261634;27;20001;-72
2022/11/09 05:56:42;;;;;;;;;;;;;;;;;;5262789;27;20001;-71
2022/11/09 05:59:07;;;;;;;13.20;3.40;;;;;;;;;;5262405;27;19935;-70
2022/11/09 06:01:32;;;;;;;14.57;3.80;;;;;;;;;;5262417;27;20323;-71
2022/11/09 06:03:58;;;;;;;;;;;;;;;;;;5262911;27;20362;-71
2022/11/09 06:06:23;;;;;;;11.20;3.10;;;;;;;;;;5259518;27;19939;-71
2022/11/09 06:08:49;;;;;;;17.60;4.12;;;;;;;;;;5259214;27;20024;-71
2022/11/09 06:11:14;;;;;;;14.63;3.47;;;;;;;;;;5262168;27;20366;-71
2022/11/09 06:13:40;;;;;;;;;;;;;;;;;;5260853;27;19999;-71
2022/11/09 06:16:05;;;;;;;17.62;3.60;;;;;;;;;;5262722;27;19929;-69
2022/11/09 06:18:30;;;;;;;;;;;;;;;;;;5262245;27;20164;-71
2022/11/09 06:20:57;;;;;;;20.85;3.97;;;;;;;;;;5259900;27;19929;-71
2022/11/09 06:23:25;;;;;;;18.65;3.15;;;;;;;;;;5262611;27;20005;-70
2022/11/09 06:25:51;;;;;;;14.35;2.92;;;;;;;;;;5261854;27;20006;-70
2022/11/09 06:28:16;;;;;;;14.95;3.30;;;;;;;;;;5262064;27;20359;-70
2022/11/09 06:30:42;;;;;;;;;;;;;;;;;;5262381;27;20006;-70
2022/11/09 06:33:07;;;;;;;20.37;3.67;;;;;;;;;;5261507;27;19928;-69
2022/11/09 06:35:32;;;;;;;;;;;;;;;;;;5260606;27;20121;-69
2022/11/09 06:37:58;;;;;;;15.23;3.78;;;;;;;;;;5240157;27;20318;-69
2022/11/09 06:40:23;;;;;;;;;;;;;;;;;;5259887;27;20155;-69
2022/11/09 06:42:48;;;;;;;16.73;3.35;;;;;;;;;;5259932;27;20298;-70
2022/11/09 06:45:13;;;;;;;10.60;3.35;;;;;;;;;;5261877;27;19997;-70
2022/11/09 06:47:38;;;;;;;10.85;3.40;;;;;;;;;;5260011;27;20399;-70
2022/11/09 06:50:03;;;;;;;;;;;;;;;;;;5260000;27;20288;-69
2022/11/09 06:52:29;;;;;;;13.93;3.42;;;;;;;;;;5261507;27;19928;-70
2022/11/09 06:54:54;;;;;;;19.50;4.62;;;;;;;;;;5262507;27;20305;-70
2022/11/09 06:57:19;;;;;;;13.70;2.80;;;;;;;;;;5261483;27;20094;-70
2022/11/09 06:59:44;;;;;;;23.58;4.00;;;;;;;;;;5261608;27;20398;-71
2022/11/09 07:02:13;;;;;;;18.50;3.62;;;;;;;;;;5261550;27;20036;-68
2022/11/09 07:04:38;;;;;;;20.20;3.12;;;;;;;;;;5261779;27;20085;-71
2022/11/09 07:07:04;;;;;;;;;;;;;;;;;;5259260;27;20414;-72
2022/11/09 07:09:29;;;;;;;16.42;3.72;;;;;;;;;;5261535;27;19961;-70
2022/11/09 07:11:54;;;;;;;18.30;3.72;;;;;;;;;;5242131;27;20053;-72
2022/11/09 07:14:20;;;;;;;10.77;3.42;;;;;;;;;;5260687;27;20049;-70
2022/11/09 07:16:46;;;;;;;13.68;3.15;;;;;;;;;;5259610;27;20460;-72
2022/11/09 07:19:11;;;;;;;;;;;;;;;;;;5261587;27;20002;-71
2022/11/09 07:21:36;;;;;;;17.55;3.62;;;;;;;;;;5262433;27;19933;-69
2022/11/09 07:24:01;;;;;;;15.18;3.60;;;;;;;;;;5257657;27;20052;-68
2022/11/09 07:26:26;;;;;;;17.15;3.92;;;;;;;;;;5260784;27;20001;-69
2022/11/09 07:28:51;;;;;;;12.80;3.12;;;;;;;;;;5262365;27;20057;-69
2022/11/09 07:31:17;;;;;;;15.63;3.35;;;;;;;;;;5258772;27;20094;-69
2022/11/09 07:33:42;;;;;;;17.65;3.47;;;;;;;;;;5258192;27;20024;-69
2022/11/09 07:36:08;;;;;;;12.07;3.47;;;;;;;;;;5259543;27;20064;-70
2022/11/09 07:38:33;;;;;;;22.40;4.45;;;;;;;;;;5260769;27;20056;-69
2022/11/09 07:40:59;;;;;;;;;;;;;;;;;;5261701;27;20104;-70
2022/11/09 07:43:24;;;;;;;16.17;3.30;;;;;;;;;;5261308;27;19972;-69
2022/11/09 07:45:49;;;;;;;17.98;4.18;;;;;;;;;;5259606;27;20390;-71
2022/11/09 07:48:14;;;;;;;17.52;4.03;;;;;;;;;;5260914;27;20136;-69
2022/11/09 07:50:40;;;;;;;18.37;4.30;;;;;;;;;;5259619;27;20001;-69
2022/11/09 07:53:06;;;;;;;15.30;3.67;;;;;;;;;;5261567;27;20012;-69
2022/11/09 07:55:31;;;;;;;16.15;4.05;;;;;;;;;;5260601;27;20035;-69
2022/11/09 07:57:57;;;;;;;16.77;4.03;;;;;;;;;;5259860;27;20001;-70
2022/11/09 08:00:23;;;;;;;15.25;4.20;;;;;;;;;;5259517;27;20301;-70
2022/11/09 08:02:48;;;;;;;16.12;3.80;;;;;;;;;;5261610;27;20029;-69
2022/11/09 08:05:13;;;;;;;26.52;5.95;;;;;;;;;;5260974;27;20364;-69
2022/11/09 08:07:38;;;;;;;;;;;;;;;;;;5259858;27;20005;-69
2022/11/09 08:10:04;;;;;;;10.90;3.15;;;;;;;;;;5261458;27;19936;-70
2022/11/09 08:12:29;;;;;;;15.60;3.60;;;;;;;;;;5259519;27;20002;-69
2022/11/09 08:14:54;;;;;;;17.42;4.65;;;;;;;;;;5261236;27;20040;-69
2022/11/09 08:17:19;;;;;;;16.48;3.22;;;;;;;;;;5260843;27;20020;-70
2022/11/09 08:19:44;;;;;;;17.45;4.62;;;;;;;;;;5260957;27;20050;-70
2022/11/09 08:22:10;;;;;;;15.13;4.32;;;;;;;;;;5259228;27;20049;-69
2022/11/09 08:24:35;;;;;;;11.75;3.45;;;;;;;;;;5257137;27;20025;-70
2022/11/09 08:27:00;;;;;;;16.60;3.60;;;;;;;;;;5259909;27;20140;-70
2022/11/09 08:29:25;;;;;;;17.45;3.22;;;;;;;;;;5257130;27;20025;-70
2022/11/09 08:31:50;;;;;;;20.23;3.55;;;;;;;;;;5259294;27;20093;-71
2022/11/09 08:34:15;;;;;;;18.98;4.50;;;;;;;;;;5257537;27;20112;-71
2022/11/09 08:36:41;;;;;;;16.10;4.43;;;;;;;;;;5260153;27;20035;-69
2022/11/09 08:39:06;;;;;;;20.40;4.03;;;;;;;;;;5258584;27;20032;-70
2022/11/09 08:41:32;;;;;;;15.30;3.00;;;;;;;;;;5259663;27;20001;-69
2022/11/09 08:43:57;;;;;;;11.18;3.58;;;;;;;;;;5258915;27;20013;-70
2022/11/09 08:46:22;;;;;;;;;;;;;;;;;;5261746;27;20037;-69
2022/11/09 08:48:48;;;;;;;24.25;4.05;;;;;;;;;;5261424;27;19932;-70
2022/11/09 08:51:13;;;;;;;17.33;4.62;;;;;;;;;;5260759;27;20002;-70
2022/11/09 08:53:38;;;;;;;18.40;4.70;;;;;;;;;;5258934;27;20479;-69
2022/11/09 08:56:07;;;;;;;12.02;3.65;;;;;;;;;;5261272;27;20005;-69
2022/11/09 08:58:32;;;;;;;18.17;4.22;;;;;;;;;;5258260;27;20001;-68
2022/11/09 09:00:57;;;;;;;;;;;;;;;;;;5260380;27;20024;-69
2022/11/09 09:03:22;;;;;;;10.93;3.90;;;;;;;;;;5259246;27;19929;-69
2022/11/09 09:05:48;;;;;;;16.10;4.55;;;;;;;;;;5258889;27;20029;-69
2022/11/09 09:08:14;;;;;;;;;;;;;;;;;;5259815;27;20028;-70
2022/11/09 09:10:39;;;;;;;21.75;4.10;;;;;;;;;;5239644;27;19925;-70
2022/11/09 09:13:04;;;;;;;;;;;;;;;;;;5258138;27;20011;-70
2022/11/09 09:15:30;;;;;;;14.98;4.47;;;;;;;;;;5258726;27;20290;-71
2022/11/09 09:17:55;;;;;;;13.70;4.57;;;;;;;;;;5262123;27;20098;-69
2022/11/09 09:20:20;;;;;;;17.48;4.45;;;;;;;;;;5260996;27;20009;-70
2022/11/09 09:22:45;;;;;;;23.42;4.22;;;;;;;;;;5261598;27;20002;-70
2022/11/09 09:25:11;;;;;;;15.77;3.97;;;;;;;;;;5262829;27;20007;-70
2022/11/09 09:27:36;;;;;;;13.80;3.95;;;;;;;;;;5262502;27;20029;-69
2022/11/09 09:30:01;;;;;;;17.65;4.30;;;;;;;;;;5259860;27;20002;-69
2022/11/09 09:32:28;;;;;;;16.87;3.35;;;;;;;;;;5262626;27;20009;-68
2022/11/09 09:34:54;;;;;;;19.27;4.00;;;;;;;;;;5261385;27;20002;-69
2022/11/09 09:37:19;;;;;;;;;;;;;;;;;;5260630;27;20020;-69
2022/11/09 09:39:44;;;;;;;18.25;3.90;;;;;;;;;;5262036;27;19932;-69
2022/11/09 09:42:09;;;;;;;;;;;;;;;;;;5262498;27;20094;-68
2022/11/09 09:44:46;;;;;;;25.85;5.07;;;;;;;;;;5262943;27;19944;-70
2022/11/09 09:47:14;;;;;;;16.08;4.07;;;;;;;;;;5260786;27;20060;-68
2022/11/09 09:49:44;;;;;;;21.85;4.35;;;;;;;;;;5262122;27;20085;-70
2022/11/09 09:52:15;;;;;;;13.65;3.55;;;;;;;;;;5262645;27;20360;-68
2022/11/09 09:54:42;;;;;;;15.32;3.70;;;;;;;;;;5259862;27;19998;-68
2022/11/09 09:57:12;;;;;;;15.70;4.15;;;;;;;;;;5259628;27;20040;-69
2022/11/09 09:59:41;;;;;;;12.45;3.90;;;;;;;;;;5262719;27;20031;-70
2022/11/09 10:02:20;;;;;;;17.70;4.10;;;;;;;;;;5262262;27;20002;-68
2022/11/09 10:04:45;;;;;;;16.50;3.85;;;;;;;;;;5262164;27;20021;-68
2022/11/09 10:07:29;;;;;;;14.55;3.37;;;;;;;;;;5260418;27;20024;-68
2022/11/09 10:10:13;;;;;;;15.10;3.90;;;;;;;;;;5262329;27;20010;-69
2022/11/09 10:12:44;;;;;;;16.95;4.25;;;;;;;;;;5259468;27;20039;-69
2022/11/09 10:15:28;;;;;;;20.08;3.92;;;;;;;;;;5262454;27;20054;-70
2022/11/09 10:18:08;;;;;;;14.27;3.53;;;;;;;;;;5261627;27;20044;-70
2022/11/09 10:20:33;;;;;;;19.83;3.55;;;;;;;;;;5260762;27;20009;-69
2022/11/09 10:23:01;;;;;;;12.57;4.03;;;;;;;;;;5261750;27;20505;-70
2022/11/09 10:25:26;;;;;;;17.08;4.32;;;;;;;;;;5260641;27;20048;-70
2022/11/09 10:27:59;;;;;;;12.68;2.90;;;;;;;;;;5257323;27;20130;-70
2022/11/09 10:30:25;;;;;;;13.73;3.60;;;;;;;;;;5259701;27;20006;-69
2022/11/09 10:32:54;;;;;;;14.40;4.05;;;;;;;;;;5258987;27;20016;-70
2022/11/09 10:35:20;;;;;;;9.93;3.22;;;;;;;;;;5261813;27;20006;-70
2022/11/09 10:37:45;;;;;;;;;;;;;;;;;;5262356;27;20016;-70
2022/11/09 10:40:15;;;;;;;12.00;3.25;;;;;;;;;;5261227;27;19963;-71
2022/11/09 10:42:45;;;;;;;12.37;2.92;;;;;;;;;;5259623;27;20323;-70
2022/11/09 10:45:11;;;;;;;20.98;3.80;;;;;;;;;;5260385;27;20081;-72
2022/11/09 10:47:50;;;;;;;18.20;3.70;;;;;;;;;;5257820;27;20025;-70
2022/11/09 10:50:24;;;;;;;18.15;3.72;;;;;;;;;;5261689;27;20016;-70
2022/11/09 10:52:49;;;;;;;13.00;4.35;;;;;;;;;;5262251;27;20316;-69
2022/11/09 10:55:14;;;;;;;;;;;;;;;;;;5262228;27;20028;-70
2022/11/09 10:57:48;;;;;;;11.55;3.40;;;;;;;;;;5241331;27;19940;-71
2022/11/09 11:00:15;;;;;;;14.00;3.60;;;;;;;;;;5261722;27;20003;-69
2022/11/09 11:02:44;;;;;;;14.60;2.87;;;;;;;;;;5261842;27;20028;-68
2022/11/09 11:05:11;;;;;;;9.98;2.60;;;;;;;;;;5257923;27;20020;-69
2022/11/09 11:07:37;;;;;;;10.45;3.22;;;;;;;;;;5259212;27;20006;-69
2022/11/09 11:10:14;;;;;;;10.68;3.37;;;;;;;;;;5261752;27;20003;-69
2022/11/09 11:12:40;;;;;;;9.88;2.65;;;;;;;;;;5260981;27;20338;-69
2022/11/09 11:15:20;;;;;;;13.43;2.75;;;;;;;;;;5260779;27;20001;-69
2022/11/09 11:17:45;;;;;;;13.35;3.00;;;;;;;;;;5261685;27;20074;-70
2022/11/09 11:20:10;;;;;;;;;;;;;;;;;;5261609;27;20391;-70
2022/11/09 11:22:35;;;;;;;12.98;3.37;;;;;;;;;;5259069;27;19968;-69
2022/11/09 11:25:00;;;;;;;;;;;;;;;;;;5259351;27;20361;-71
2022/11/09 11:27:36;;;;;;;15.60;4.20;;;;;;;;;;5258652;27;19928;-69
2022/11/09 11:30:05;;;;;;;12.82;3.33;;;;;;;;;;5261957;27;20437;-69
2022/11/09 11:32:30;;;;;;;13.38;3.62;;;;;;;;;;5260393;27;20049;-70
2022/11/09 11:34:55;;;;;;;;;;;;;;;;;;5261771;27;20012;-71
2022/11/09 11:37:36;;;;;;;7.70;2.15;;;;;;;;;;5260080;27;20344;-72
2022/11/09 11:40:11;;;;;;;4.80;1.70;;;;;;;;;;5258484;27;20263;-70
2022/11/09 11:42:55;;;;;;;5.70;1.75;;;;;;;;;;5257311;27;20366;-70
2022/11/09 11:45:31;;;;;;;5.90;1.83;;;;;;;;;;5261217;27;20005;-71
2022/11/09 11:47:57;;;;;;;5.15;1.80;;;;;;;;;;5260935;27;20032;-70
2022/11/09 11:50:31;;;;;;;10.35;2.20;;;;;;;;;;5261442;27;20001;-71
2022/11/09 11:52:59;;;;;;;7.95;2.30;;;;;;;;;;5259876;27;20002;-70
2022/11/09 11:55:31;;;;;;;8.15;2.40;;;;;;;;;;5258943;27;20002;-70
2022/11/09 11:57:56;;;;;;;4.78;1.48;;;;;;;;;;5259560;27;19990;-70
2022/11/09 12:00:21;;;;;;;6.30;1.77;;;;;;;;;;5259938;27;20028;-70
2022/11/09 12:03:05;;;;;;;6.68;1.85;;;;;;;;;;5258996;27;20002;-71
2022/11/09 12:05:49;;;;;;;6.55;2.17;;;;;;;;;;5261588;27;20001;-70
2022/11/09 12:08:21;;;;;;;6.05;2.25;;;;;;;;;;5261165;27;20068;-70
2022/11/09 12:10:53;;;;;;;9.73;2.97;;;;;;;;;;5259218;27;20036;-70
2022/11/09 12:13:18;;;;;;;10.57;2.78;;;;;;;;;;5259304;27;20067;-70
2022/11/09 12:15:48;;;;;;;13.85;3.12;;;;;;;;;;5257549;27;20005;-69
2022/11/09 12:18:28;;;;;;;13.02;3.15;;;;;;;;;;5261043;27;20102;-70
2022/11/09 12:21:12;;;;;;;13.55;3.53;;;;;;;;;;5257650;27;20013;-69
2022/11/09 12:24:00;;;;;;;8.98;2.50;;;;;;;;;;5260135;27;20356;-69
2022/11/09 12:26:28;;;;;;;13.65;2.87;;;;;;;;;;5260005;27;20012;-69
2022/11/09 12:29:06;;;;;;;13.30;3.08;;;;;;;;;;5262150;27;20006;-69
2022/11/09 12:31:57;;;;;;;15.02;3.12;;;;;;;;;;5258104;27;20303;-69
2022/11/09 12:34:45;;;;;;;8.82;2.17;;;;;;;;;;5255091;27;20342;-69
2022/11/09 12:37:16;;;;;;;7.45;2.53;;;;;;;;;;5261102;27;20041;-69
2022/11/09 12:39:44;;;;;;;9.95;2.62;;;;;;;;;;5239222;27;20049;-69
2022/11/09 12:42:17;;;;;;;5.68;2.33;;;;;;;;;;5260360;27;20043;-69
2022/11/09 12:44:45;;;;;;;10.85;2.58;;;;;;;;;;5259280;27;20008;-69
2022/11/09 12:47:23;;;;;;;13.13;2.83;;;;;;;;;;5259564;27;20368;-69
2022/11/09 12:49:48;;;;;;;9.23;2.30;;;;;;;;;;5260187;27;20371;-69
2022/11/09 12:52:15;;;;;;;7.35;1.98;;;;;;;;;;5262704;27;20014;-71
2022/11/09 12:54:47;;;;;;;11.88;2.85;;;;;;;;;;5260892;27;20050;-70
2022/11/09 12:57:15;;;;;;;14.20;6.25;;;;;;;;;;5260734;27;20005;-70
2022/11/09 12:59:52;;;;;;;11.48;2.50;;;;;;;;;;5260233;27;20367;-69
2022/11/09 13:02:26;;;;;;;10.23;1.85;;;;;;;;;;5257194;27;20024;-69
2022/11/09 13:04:59;;;;;;;10.35;2.08;;;;;;;;;;5256879;27;20028;-69
2022/11/09 13:07:28;;;;;;;8.90;1.60;;;;;;;;;;5260366;27;20005;-70
2022/11/09 13:09:54;;;;;;;8.38;2.33;;;;;;;;;;5261485;27;19998;-69
2022/11/09 13:12:34;;;;;;;11.55;2.28;;;;;;;;;;5259726;27;20021;-69
2022/11/09 13:15:20;;;;;;;13.05;2.80;;;;;;;;;;5259880;27;20016;-70
2022/11/09 13:17:59;;;;;;;7.47;2.70;;;;;;;;;;5261242;27;19997;-70
2022/11/09 13:20:33;;;;;;;10.55;3.05;;;;;;;;;;5261357;27;20300;-69
2022/11/09 13:23:00;;;;;;;5.68;2.22;;;;;;;;;;5259946;27;20024;-70
2022/11/09 13:25:43;;;;;;;12.32;2.78;;;;;;;;;;5259448;27;20392;-70
2022/11/09 13:28:28;;;;;;;13.27;2.78;;;;;;;;;;5260429;27;20018;-69
2022/11/09 13:30:56;;;;;;;13.88;2.70;;;;;;;;;;5245844;27;20005;-71
2022/11/09 13:33:31;;;;;;;11.77;2.05;;;;;;;;;;5241886;27;20359;-69
2022/11/09 13:36:05;;;;;;;9.50;2.35;;;;;;;;;;5260810;27;20002;-68
2022/11/09 13:38:31;;;;;;;9.60;2.03;;;;;;;;;;5258774;27;20100;-68
2022/11/09 13:40:57;;;;;;;11.90;3.20;;;;;;;;;;5261243;27;20392;-70
2022/11/09 13:43:25;;;;;;;15.98;2.95;;;;;;;;;;5261288;27;20024;-70
2022/11/09 13:45:52;;;;;;;9.48;2.30;;;;;;;;;;5258555;27;20462;-69
2022/11/09 13:48:29;;;;;;;8.63;2.30;;;;;;;;;;5257640;27;20022;-68
2022/11/09 13:50:56;;;;;;;8.38;2.33;;;;;;;;;;5258657;27;20005;-69
2022/11/09 13:53:28;;;;;;;9.82;1.98;;;;;;;;;;5259762;27;20380;-69
2022/11/09 13:55:53;;;;;;;9.07;1.65;;;;;;;;;;5261476;27;20002;-69
2022/11/09 13:58:33;;;;;;;9.20;2.70;;;;;;;;;;5259974;27;20002;-70
2022/11/09 14:00:58;;;;;;;9.27;2.35;;;;;;;;;;5260043;27;20482;-69
2022/11/09 14:03:25;;;;;;;11.45;2.05;;;;;;;;;;5260751;27;20010;-68
2022/11/09 14:05:51;;;;;;;12.55;2.12;;;;;;;;;;5259179;27;20002;-71
2022/11/09 14:08:24;;;;;;;15.00;2.80;;;;;;;;;;5261153;27;20031;-71
2022/11/09 14:10:58;;;;;;;13.27;2.33;;;;;;;;;;5258980;27;20046;-70
2022/11/09 14:13:26;;;;;;;12.63;2.17;;;;;;;;;;5258910;27;19990;-69
2022/11/09 14:16:05;;;;;;;12.10;2.40;;;;;;;;;;5259610;27;20289;-70
2022/11/09 14:18:40;;;;;;;13.18;2.15;;;;;;;;;;5260608;27;19990;-72
2022/11/09 14:21:11;;;;;;;10.30;2.42;;;;;;;;;;5260311;27;20043;-70
2022/11/09 14:23:37;;;;;;;10.65;2.10;;;;;;;;;;5260110;27;20339;-70
2022/11/09 14:26:05;;;;;;;11.00;2.45;;;;;;;;;;5259645;27;20049;-71
2022/11/09 14:28:33;;;;;;;12.13;2.90;;;;;;;;;;5257499;27;20327;-71
2022/11/09 14:30:58;;;;;;;10.70;2.72;;;;;;;;;;5258571;27;20013;-70
2022/11/09 14:33:23;;;;;;;;;;;;;;;;;;5260410;27;20002;-70
2022/11/09 14:35:50;;;;;;;11.50;2.67;;;;;;;;;;5257984;27;19958;-70
2022/11/09 14:38:24;;;;;;;8.88;2.20;;;;;;;;;;5259269;27;20047;-70
2022/11/09 14:40:53;;;;;;;10.63;2.28;;;;;;;;;;5257969;27;19993;-70
2022/11/09 14:43:28;;;;;;;14.30;3.03;;;;;;;;;;5261107;27;20013;-70
2022/11/09 14:45:55;;;;;;;14.27;2.58;;;;;;;;;;5259590;27;20010;-71
2022/11/09 14:48:21;;;;;;;13.20;3.37;;;;;;;;;;5262349;27;20009;-70
2022/11/09 14:50:46;;;;;;;;;;;;;;;;;;5260305;27;20001;-70